sensor_id;sensor_type;location;lat;lon;timestamp;P1;durP1;ratioP1;P2;durP2;ratioP2
11422;SDS011;5768;51.476;7.210;2023-04-01T00:05:02;1.23;;;1.00;;
11422;SDS011;5768;51.476;7.210;2023-04-01T00:10:06;1.90;;;1.23;;
11422;SDS011;5768;51.476;7.210;2023-04-01T00:15:12;3.57;;;1.40;;
11422;SDS011;5768;51.476;7.210;2023-04-01T00:20:15;2.47;;;1.20;;
11422;SDS011;5768;51.476;7.210;2023-04-01T00:25:18;2.13;;;1.07;;
11422;SDS011;5768;51.476;7.210;2023-04-01T00:30:22;2.70;;;1.10;;
11422;SDS011;5768;51.476;7.210;2023-04-01T00:35:24;4.43;;;1.20;;
11422;SDS011;5768;51.476;7.210;2023-04-01T00:40:27;1.50;;;1.00;;
11422;SDS011;5768;51.476;7.210;2023-04-01T00:45:34;2.50;;;1.03;;
11422;SDS011;5768;51.476;7.210;2023-04-01T00:50:40;1.10;;;1.00;;
11422;SDS011;5768;51.476;7.210;2023-04-01T00:55:49;1.57;;;1.20;;
11422;SDS011;5768;51.476;7.210;2023-04-01T01:00:59;1.00;;;0.87;;
11422;SDS011;5768;51.476;7.210;2023-04-01T01:06:09;1.07;;;0.70;;
11422;SDS011;5768;51.476;7.210;2023-04-01T01:11:27;1.33;;;1.20;;
11422;SDS011;5768;51.476;7.210;2023-04-01T01:16:39;1.73;;;0.80;;
11422;SDS011;5768;51.476;7.210;2023-04-01T01:21:52;2.17;;;1.20;;
11422;SDS011;5768;51.476;7.210;2023-04-01T01:27:14;2.93;;;1.23;;
11422;SDS011;5768;51.476;7.210;2023-04-01T01:32:25;1.60;;;1.20;;
11422;SDS011;5768;51.476;7.210;2023-04-01T01:37:56;1.63;;;0.97;;
11422;SDS011;5768;51.476;7.210;2023-04-01T01:43:04;1.73;;;1.20;;
11422;SDS011;5768;51.476;7.210;2023-04-01T01:48:12;1.10;;;1.00;;
11422;SDS011;5768;51.476;7.210;2023-04-01T01:53:19;1.17;;;1.07;;
11422;SDS011;5768;51.476;7.210;2023-04-01T01:58:22;1.83;;;0.90;;
11422;SDS011;5768;51.476;7.210;2023-04-01T02:03:30;1.87;;;1.00;;
11422;SDS011;5768;51.476;7.210;2023-04-01T02:08:39;1.03;;;0.93;;
11422;SDS011;5768;51.476;7.210;2023-04-01T02:13:47;0.70;;;0.70;;
11422;SDS011;5768;51.476;7.210;2023-04-01T02:18:55;1.40;;;1.00;;
11422;SDS011;5768;51.476;7.210;2023-04-01T02:24:01;1.70;;;1.13;;
11422;SDS011;5768;51.476;7.210;2023-04-01T02:29:09;0.93;;;0.90;;
11422;SDS011;5768;51.476;7.210;2023-04-01T02:34:13;2.97;;;0.80;;
11422;SDS011;5768;51.476;7.210;2023-04-01T02:39:17;1.80;;;0.90;;
11422;SDS011;5768;51.476;7.210;2023-04-01T02:44:20;2.57;;;1.30;;
11422;SDS011;5768;51.476;7.210;2023-04-01T02:49:23;2.00;;;1.10;;
11422;SDS011;5768;51.476;7.210;2023-04-01T02:54:26;1.70;;;0.60;;
11422;SDS011;5768;51.476;7.210;2023-04-01T02:59:28;0.87;;;0.60;;
11422;SDS011;5768;51.476;7.210;2023-04-01T03:04:31;0.63;;;0.63;;
11422;SDS011;5768;51.476;7.210;2023-04-01T03:09:35;1.97;;;0.87;;
11422;SDS011;5768;51.476;7.210;2023-04-01T03:14:38;1.20;;;0.80;;
11422;SDS011;5768;51.476;7.210;2023-04-01T03:19:40;1.40;;;0.90;;
11422;SDS011;5768;51.476;7.210;2023-04-01T03:24:43;2.27;;;0.80;;
11422;SDS011;5768;51.476;7.210;2023-04-01T03:29:45;1.80;;;1.00;;
11422;SDS011;5768;51.476;7.210;2023-04-01T03:34:48;1.30;;;1.07;;
11422;SDS011;5768;51.476;7.210;2023-04-01T03:39:51;1.07;;;0.70;;
11422;SDS011;5768;51.476;7.210;2023-04-01T03:44:55;0.60;;;0.60;;
11422;SDS011;5768;51.476;7.210;2023-04-01T03:49:57;1.70;;;1.00;;
11422;SDS011;5768;51.476;7.210;2023-04-01T03:55:00;1.00;;;0.90;;
11422;SDS011;5768;51.476;7.210;2023-04-01T04:00:07;0.70;;;0.70;;
11422;SDS011;5768;51.476;7.210;2023-04-01T04:05:10;1.30;;;0.60;;
11422;SDS011;5768;51.476;7.210;2023-04-01T04:10:14;1.37;;;0.73;;
11422;SDS011;5768;51.476;7.210;2023-04-01T04:15:17;0.77;;;0.77;;
11422;SDS011;5768;51.476;7.210;2023-04-01T04:20:20;0.93;;;0.90;;
11422;SDS011;5768;51.476;7.210;2023-04-01T04:25:26;1.03;;;0.70;;
11422;SDS011;5768;51.476;7.210;2023-04-01T04:30:28;1.43;;;1.03;;
11422;SDS011;5768;51.476;7.210;2023-04-01T04:35:33;1.90;;;1.13;;
11422;SDS011;5768;51.476;7.210;2023-04-01T04:40:39;1.80;;;1.07;;
11422;SDS011;5768;51.476;7.210;2023-04-01T04:45:45;1.47;;;0.97;;
11422;SDS011;5768;51.476;7.210;2023-04-01T04:50:50;1.00;;;0.87;;
11422;SDS011;5768;51.476;7.210;2023-04-01T04:55:53;0.93;;;0.80;;
11422;SDS011;5768;51.476;7.210;2023-04-01T05:00:56;0.53;;;0.53;;
11422;SDS011;5768;51.476;7.210;2023-04-01T05:06:00;1.20;;;1.00;;
11422;SDS011;5768;51.476;7.210;2023-04-01T05:11:07;1.87;;;1.40;;
11422;SDS011;5768;51.476;7.210;2023-04-01T05:16:16;1.60;;;1.00;;
11422;SDS011;5768;51.476;7.210;2023-04-01T05:21:21;1.50;;;1.00;;
11422;SDS011;5768;51.476;7.210;2023-04-01T05:26:25;1.10;;;0.80;;
11422;SDS011;5768;51.476;7.210;2023-04-01T05:31:27;1.17;;;1.07;;
11422;SDS011;5768;51.476;7.210;2023-04-01T05:36:31;3.17;;;1.17;;
11422;SDS011;5768;51.476;7.210;2023-04-01T05:41:35;1.43;;;1.03;;
11422;SDS011;5768;51.476;7.210;2023-04-01T05:46:40;1.80;;;1.00;;
11422;SDS011;5768;51.476;7.210;2023-04-01T05:51:44;1.33;;;1.10;;
11422;SDS011;5768;51.476;7.210;2023-04-01T05:56:50;2.03;;;1.20;;
11422;SDS011;5768;51.476;7.210;2023-04-01T06:01:54;2.07;;;1.40;;
11422;SDS011;5768;51.476;7.210;2023-04-01T06:06:58;1.20;;;1.10;;
11422;SDS011;5768;51.476;7.210;2023-04-01T06:12:23;1.47;;;1.30;;
11422;SDS011;5768;51.476;7.210;2023-04-01T06:17:52;2.57;;;1.30;;
11422;SDS011;5768;51.476;7.210;2023-04-01T06:23:21;1.50;;;1.40;;
11422;SDS011;5768;51.476;7.210;2023-04-01T06:28:57;0.57;;;0.57;;
11422;SDS011;5768;51.476;7.210;2023-04-01T06:34:42;1.00;;;1.00;;
11422;SDS011;5768;51.476;7.210;2023-04-01T06:40:12;1.20;;;1.10;;
11422;SDS011;5768;51.476;7.210;2023-04-01T06:45:53;1.13;;;0.90;;
11422;SDS011;5768;51.476;7.210;2023-04-01T06:51:11;1.03;;;1.03;;
11422;SDS011;5768;51.476;7.210;2023-04-01T06:56:28;1.23;;;1.13;;
11422;SDS011;5768;51.476;7.210;2023-04-01T07:01:37;1.53;;;1.40;;
11422;SDS011;5768;51.476;7.210;2023-04-01T07:06:47;1.73;;;1.47;;
11422;SDS011;5768;51.476;7.210;2023-04-01T07:11:59;5.03;;;1.80;;
11422;SDS011;5768;51.476;7.210;2023-04-01T07:17:15;1.50;;;1.40;;
11422;SDS011;5768;51.476;7.210;2023-04-01T07:22:26;3.10;;;1.30;;
11422;SDS011;5768;51.476;7.210;2023-04-01T07:27:35;1.57;;;1.47;;
11422;SDS011;5768;51.476;7.210;2023-04-01T07:32:41;1.10;;;1.00;;
11422;SDS011;5768;51.476;7.210;2023-04-01T07:37:56;1.67;;;1.40;;
11422;SDS011;5768;51.476;7.210;2023-04-01T07:48:55;1.60;;;1.50;;
11422;SDS011;5768;51.476;7.210;2023-04-01T07:54:06;2.27;;;1.50;;
11422;SDS011;5768;51.476;7.210;2023-04-01T07:59:19;3.63;;;1.50;;
11422;SDS011;5768;51.476;7.210;2023-04-01T08:04:32;1.60;;;1.50;;
11422;SDS011;5768;51.476;7.210;2023-04-01T08:09:55;1.00;;;1.00;;
11422;SDS011;5768;51.476;7.210;2023-04-01T08:15:15;1.47;;;1.37;;
11422;SDS011;5768;51.476;7.210;2023-04-01T08:20:30;1.67;;;1.50;;
11422;SDS011;5768;51.476;7.210;2023-04-01T08:25:44;1.23;;;1.20;;
11422;SDS011;5768;51.476;7.210;2023-04-01T08:30:58;1.50;;;1.40;;
11422;SDS011;5768;51.476;7.210;2023-04-01T08:36:12;2.43;;;1.97;;
11422;SDS011;5768;51.476;7.210;2023-04-01T08:41:31;1.63;;;1.53;;
11422;SDS011;5768;51.476;7.210;2023-04-01T08:47:06;2.07;;;1.80;;
11422;SDS011;5768;51.476;7.210;2023-04-01T08:52:43;2.07;;;1.97;;
11422;SDS011;5768;51.476;7.210;2023-04-01T09:03:52;4.07;;;3.20;;
11422;SDS011;5768;51.476;7.210;2023-04-01T09:09:32;3.77;;;3.47;;
11422;SDS011;5768;51.476;7.210;2023-04-01T09:21:09;4.47;;;4.07;;
11422;SDS011;5768;51.476;7.210;2023-04-01T09:32:30;5.13;;;4.73;;
11422;SDS011;5768;51.476;7.210;2023-04-01T09:38:00;5.57;;;5.00;;
11422;SDS011;5768;51.476;7.210;2023-04-01T09:43:25;5.17;;;4.43;;
11422;SDS011;5768;51.476;7.210;2023-04-01T09:48:37;5.10;;;4.60;;
11422;SDS011;5768;51.476;7.210;2023-04-01T09:54:01;7.10;;;6.40;;
11422;SDS011;5768;51.476;7.210;2023-04-01T09:59:22;6.70;;;6.17;;
11422;SDS011;5768;51.476;7.210;2023-04-01T10:16:13;4.17;;;3.77;;
11422;SDS011;5768;51.476;7.210;2023-04-01T10:33:20;6.75;;;6.15;;
11422;SDS011;5768;51.476;7.210;2023-04-01T10:56:32;3.50;;;3.20;;
11422;SDS011;5768;51.476;7.210;2023-04-01T11:01:49;5.50;;;5.00;;
11422;SDS011;5768;51.476;7.210;2023-04-01T11:07:46;5.00;;;4.60;;
11422;SDS011;5768;51.476;7.210;2023-04-01T11:19:18;4.70;;;4.30;;
11422;SDS011;5768;51.476;7.210;2023-04-01T11:24:53;5.63;;;5.07;;
11422;SDS011;5768;51.476;7.210;2023-04-01T11:30:49;5.30;;;4.63;;
11422;SDS011;5768;51.476;7.210;2023-04-01T11:36:18;4.93;;;4.43;;
11422;SDS011;5768;51.476;7.210;2023-04-01T11:41:38;5.77;;;5.27;;
11422;SDS011;5768;51.476;7.210;2023-04-01T11:46:59;5.23;;;4.73;;
11422;SDS011;5768;51.476;7.210;2023-04-01T11:52:22;6.15;;;5.57;;
11422;SDS011;5768;51.476;7.210;2023-04-01T11:57:53;7.27;;;5.77;;
11422;SDS011;5768;51.476;7.210;2023-04-01T12:09:24;5.03;;;4.50;;
11422;SDS011;5768;51.476;7.210;2023-04-01T12:14:44;6.20;;;5.60;;
11422;SDS011;5768;51.476;7.210;2023-04-01T12:20:04;4.80;;;4.17;;
11422;SDS011;5768;51.476;7.210;2023-04-01T12:31:16;3.53;;;3.23;;
11422;SDS011;5768;51.476;7.210;2023-04-01T12:36:32;4.63;;;4.23;;
11422;SDS011;5768;51.476;7.210;2023-04-01T12:41:53;5.93;;;5.33;;
11422;SDS011;5768;51.476;7.210;2023-04-01T12:47:20;5.40;;;4.90;;
11422;SDS011;5768;51.476;7.210;2023-04-01T12:52:58;3.53;;;3.23;;
11422;SDS011;5768;51.476;7.210;2023-04-01T13:10:00;7.13;;;6.53;;
11422;SDS011;5768;51.476;7.210;2023-04-01T13:15:20;4.00;;;3.67;;
11422;SDS011;5768;51.476;7.210;2023-04-01T13:20:35;6.72;;;6.13;;
11422;SDS011;5768;51.476;7.210;2023-04-01T13:25:51;5.60;;;5.13;;
11422;SDS011;5768;51.476;7.210;2023-04-01T13:31:09;5.83;;;5.30;;
11422;SDS011;5768;51.476;7.210;2023-04-01T13:36:33;6.07;;;5.57;;
11422;SDS011;5768;51.476;7.210;2023-04-01T13:41:59;4.68;;;4.28;;
11422;SDS011;5768;51.476;7.210;2023-04-01T13:52:54;4.10;;;3.70;;
11422;SDS011;5768;51.476;7.210;2023-04-01T14:04:01;4.45;;;4.15;;
11422;SDS011;5768;51.476;7.210;2023-04-01T14:09:39;5.60;;;5.10;;
11422;SDS011;5768;51.476;7.210;2023-04-01T14:14:55;5.07;;;4.67;;
11422;SDS011;5768;51.476;7.210;2023-04-01T14:20:29;4.87;;;4.47;;
11422;SDS011;5768;51.476;7.210;2023-04-01T14:25:48;5.43;;;4.93;;
11422;SDS011;5768;51.476;7.210;2023-04-01T14:31:26;5.80;;;5.17;;
11422;SDS011;5768;51.476;7.210;2023-04-01T14:36:43;6.03;;;5.33;;
11422;SDS011;5768;51.476;7.210;2023-04-01T14:42:13;3.83;;;3.53;;
11422;SDS011;5768;51.476;7.210;2023-04-01T14:47:46;5.20;;;4.70;;
11422;SDS011;5768;51.476;7.210;2023-04-01T14:52:57;5.32;;;4.72;;
11422;SDS011;5768;51.476;7.210;2023-04-01T14:58:16;4.90;;;4.50;;
11422;SDS011;5768;51.476;7.210;2023-04-01T15:03:22;6.87;;;6.20;;
11422;SDS011;5768;51.476;7.210;2023-04-01T15:08:33;6.93;;;6.40;;
11422;SDS011;5768;51.476;7.210;2023-04-01T15:19:21;7.40;;;5.53;;
11422;SDS011;5768;51.476;7.210;2023-04-01T15:24:35;5.73;;;5.23;;
11422;SDS011;5768;51.476;7.210;2023-04-01T15:29:51;6.95;;;6.25;;
11422;SDS011;5768;51.476;7.210;2023-04-01T15:35:10;6.47;;;5.93;;
11422;SDS011;5768;51.476;7.210;2023-04-01T15:40:30;6.50;;;6.00;;
11422;SDS011;5768;51.476;7.210;2023-04-01T15:45:45;5.47;;;4.97;;
11422;SDS011;5768;51.476;7.210;2023-04-01T15:50:54;6.05;;;5.55;;
11422;SDS011;5768;51.476;7.210;2023-04-01T15:56:24;6.00;;;5.50;;
11422;SDS011;5768;51.476;7.210;2023-04-01T16:01:44;6.68;;;6.18;;
11422;SDS011;5768;51.476;7.210;2023-04-01T16:07:03;5.25;;;4.82;;
11422;SDS011;5768;51.476;7.210;2023-04-01T16:12:28;6.57;;;5.97;;
11422;SDS011;5768;51.476;7.210;2023-04-01T16:17:53;4.73;;;4.30;;
11422;SDS011;5768;51.476;7.210;2023-04-01T16:23:14;4.73;;;4.33;;
11422;SDS011;5768;51.476;7.210;2023-04-01T16:28:27;3.10;;;2.90;;
11422;SDS011;5768;51.476;7.210;2023-04-01T16:33:40;4.07;;;3.75;;
11422;SDS011;5768;51.476;7.210;2023-04-01T16:38:55;5.07;;;4.67;;
11422;SDS011;5768;51.476;7.210;2023-04-01T16:44:18;5.50;;;5.10;;
11422;SDS011;5768;51.476;7.210;2023-04-01T16:49:27;5.50;;;5.00;;
11422;SDS011;5768;51.476;7.210;2023-04-01T16:54:35;5.97;;;5.47;;
11422;SDS011;5768;51.476;7.210;2023-04-01T16:59:44;7.20;;;6.53;;
11422;SDS011;5768;51.476;7.210;2023-04-01T17:05:00;6.33;;;5.83;;
11422;SDS011;5768;51.476;7.210;2023-04-01T17:10:15;5.90;;;5.40;;
11422;SDS011;5768;51.476;7.210;2023-04-01T17:15:33;6.50;;;6.00;;
11422;SDS011;5768;51.476;7.210;2023-04-01T17:20:46;6.30;;;5.80;;
11422;SDS011;5768;51.476;7.210;2023-04-01T17:26:05;5.20;;;4.80;;
11422;SDS011;5768;51.476;7.210;2023-04-01T17:31:32;6.30;;;5.77;;
11422;SDS011;5768;51.476;7.210;2023-04-01T17:36:48;7.37;;;6.77;;
11422;SDS011;5768;51.476;7.210;2023-04-01T17:42:09;6.10;;;5.60;;
11422;SDS011;5768;51.476;7.210;2023-04-01T17:47:34;7.45;;;6.75;;
11422;SDS011;5768;51.476;7.210;2023-04-01T17:52:47;9.33;;;8.40;;
11422;SDS011;5768;51.476;7.210;2023-04-01T17:57:58;8.10;;;7.33;;
11422;SDS011;5768;51.476;7.210;2023-04-01T18:03:12;6.90;;;6.20;;
11422;SDS011;5768;51.476;7.210;2023-04-01T18:08:35;7.97;;;7.17;;
11422;SDS011;5768;51.476;7.210;2023-04-01T18:19:36;9.63;;;8.83;;
11422;SDS011;5768;51.476;7.210;2023-04-01T18:24:54;8.73;;;7.93;;
11422;SDS011;5768;51.476;7.210;2023-04-01T18:30:05;8.33;;;7.53;;
11422;SDS011;5768;51.476;7.210;2023-04-01T18:35:16;11.63;;;10.53;;
11422;SDS011;5768;51.476;7.210;2023-04-01T18:40:29;11.03;;;10.03;;
11422;SDS011;5768;51.476;7.210;2023-04-01T18:45:37;12.03;;;10.87;;
11422;SDS011;5768;51.476;7.210;2023-04-01T18:50:51;13.23;;;11.93;;
11422;SDS011;5768;51.476;7.210;2023-04-01T18:56:00;11.73;;;10.60;;
11422;SDS011;5768;51.476;7.210;2023-04-01T19:01:15;11.20;;;10.10;;
11422;SDS011;5768;51.476;7.210;2023-04-01T19:06:32;10.67;;;9.60;;
11422;SDS011;5768;51.476;7.210;2023-04-01T19:11:39;11.10;;;10.00;;
11422;SDS011;5768;51.476;7.210;2023-04-01T19:16:55;7.83;;;7.13;;
11422;SDS011;5768;51.476;7.210;2023-04-01T19:22:12;8.43;;;7.63;;
11422;SDS011;5768;51.476;7.210;2023-04-01T19:27:41;7.00;;;6.43;;
11422;SDS011;5768;51.476;7.210;2023-04-01T19:32:53;4.50;;;4.10;;
11422;SDS011;5768;51.476;7.210;2023-04-01T19:38:09;3.50;;;3.20;;
11422;SDS011;5768;51.476;7.210;2023-04-01T19:43:26;3.47;;;3.27;;
11422;SDS011;5768;51.476;7.210;2023-04-01T19:48:49;3.50;;;3.20;;
11422;SDS011;5768;51.476;7.210;2023-04-01T19:54:01;3.53;;;3.33;;
11422;SDS011;5768;51.476;7.210;2023-04-01T19:59:18;4.17;;;3.50;;
11422;SDS011;5768;51.476;7.210;2023-04-01T20:04:30;3.57;;;3.27;;
11422;SDS011;5768;51.476;7.210;2023-04-01T20:09:47;3.30;;;3.00;;
11422;SDS011;5768;51.476;7.210;2023-04-01T20:14:58;3.13;;;2.90;;
11422;SDS011;5768;51.476;7.210;2023-04-01T20:20:14;3.10;;;2.90;;
11422;SDS011;5768;51.476;7.210;2023-04-01T20:25:22;2.57;;;2.47;;
11422;SDS011;5768;51.476;7.210;2023-04-01T20:30:46;2.60;;;2.40;;
11422;SDS011;5768;51.476;7.210;2023-04-01T20:36:16;2.43;;;2.30;;
11422;SDS011;5768;51.476;7.210;2023-04-01T20:41:33;2.47;;;2.37;;
11422;SDS011;5768;51.476;7.210;2023-04-01T20:46:51;2.90;;;2.70;;
11422;SDS011;5768;51.476;7.210;2023-04-01T20:52:17;3.40;;;3.10;;
11422;SDS011;5768;51.476;7.210;2023-04-01T20:57:27;3.17;;;2.97;;
11422;SDS011;5768;51.476;7.210;2023-04-01T21:02:48;3.77;;;3.27;;
11422;SDS011;5768;51.476;7.210;2023-04-01T21:07:58;3.63;;;3.30;;
11422;SDS011;5768;51.476;7.210;2023-04-01T21:13:14;3.70;;;3.50;;
11422;SDS011;5768;51.476;7.210;2023-04-01T21:18:33;3.77;;;3.47;;
11422;SDS011;5768;51.476;7.210;2023-04-01T21:23:47;3.67;;;3.37;;
11422;SDS011;5768;51.476;7.210;2023-04-01T21:34:43;3.77;;;3.47;;
11422;SDS011;5768;51.476;7.210;2023-04-01T21:40:12;3.30;;;3.10;;
11422;SDS011;5768;51.476;7.210;2023-04-01T21:56:53;4.10;;;3.80;;
11422;SDS011;5768;51.476;7.210;2023-04-01T22:08:35;4.43;;;4.13;;
11422;SDS011;5768;51.476;7.210;2023-04-01T22:13:48;6.60;;;6.00;;
11422;SDS011;5768;51.476;7.210;2023-04-01T22:18:57;4.80;;;4.43;;
11422;SDS011;5768;51.476;7.210;2023-04-01T22:24:09;4.30;;;4.00;;
11422;SDS011;5768;51.476;7.210;2023-04-01T22:29:20;4.60;;;4.17;;
11422;SDS011;5768;51.476;7.210;2023-04-01T22:34:30;4.23;;;3.83;;
11422;SDS011;5768;51.476;7.210;2023-04-01T22:39:57;4.27;;;3.97;;
11422;SDS011;5768;51.476;7.210;2023-04-01T22:50:54;6.73;;;6.23;;
11422;SDS011;5768;51.476;7.210;2023-04-01T22:56:10;6.60;;;6.10;;
11422;SDS011;5768;51.476;7.210;2023-04-01T23:01:19;5.83;;;5.43;;
11422;SDS011;5768;51.476;7.210;2023-04-01T23:06:27;4.97;;;4.60;;
11422;SDS011;5768;51.476;7.210;2023-04-01T23:11:36;5.03;;;4.63;;
11422;SDS011;5768;51.476;7.210;2023-04-01T23:16:48;4.80;;;4.40;;
11422;SDS011;5768;51.476;7.210;2023-04-01T23:22:01;4.40;;;4.10;;
11422;SDS011;5768;51.476;7.210;2023-04-01T23:27:16;5.40;;;5.00;;
11422;SDS011;5768;51.476;7.210;2023-04-01T23:32:25;4.60;;;4.30;;
11422;SDS011;5768;51.476;7.210;2023-04-01T23:37:28;4.70;;;4.30;;
11422;SDS011;5768;51.476;7.210;2023-04-01T23:42:32;4.70;;;4.40;;
11422;SDS011;5768;51.476;7.210;2023-04-01T23:47:41;4.87;;;4.47;;
11422;SDS011;5768;51.476;7.210;2023-04-01T23:52:52;5.10;;;4.70;;
11422;SDS011;5768;51.476;7.210;2023-04-01T23:58:06;6.07;;;5.63;;
